Terminal Aerodrome Forecast
Issued by NWS Jacksonville, FL

Home | Current Version | Previous Version | Text Only | Print | Product List | Glossary On
Versions: 1 2 3 4 5 6 7 8 9 10 11 12 13 14 15 16 17 18 19 20 21 22 23 24 25 26 27 28 29 30 31 32 33
000
FTUS42 KJAX 180752 AAA
TAFGNV
TAF AMD
KGNV 180752Z 1808/1906 00000KT 5SM BR OVC005
     FM180930 00000KT 1SM BR OVC002
     FM181430 25003KT 5SM BR BKN008
     FM181530 23003KT P6SM SCT015 SCT035
     FM181900 VRB04KT P6SM BKN100
     FM182000 10005KT P6SM SCT250=

USA.gov is the U.S. government's official web portal to all federal, state and local government web resources and services.